createdAt,value
2023-05-09T00:02:22.189Z,21.85
2023-05-09T00:04:48.716Z,21.79
2023-05-09T00:07:15.632Z,21.79
2023-05-09T00:09:41.970Z,21.80
2023-05-09T00:12:08.304Z,21.79
2023-05-09T00:14:34.681Z,21.78
2023-05-09T00:17:01.001Z,21.79
2023-05-09T00:19:27.361Z,21.76
2023-05-09T00:21:53.969Z,21.76
2023-05-09T00:24:20.297Z,21.73
2023-05-09T00:26:46.620Z,21.73
2023-05-09T00:29:12.940Z,21.71
2023-05-09T00:31:39.298Z,21.69
2023-05-09T00:34:05.683Z,21.70
2023-05-09T00:36:32.665Z,21.71
2023-05-09T00:38:58.985Z,21.71
2023-05-09T00:41:25.582Z,21.72
2023-05-09T00:43:51.918Z,21.71
2023-05-09T00:46:18.264Z,21.70
2023-05-09T00:48:45.645Z,21.68
2023-05-09T00:51:11.977Z,21.69
2023-05-09T00:53:38.297Z,21.68
2023-05-09T00:56:04.795Z,21.68
2023-05-09T00:58:31.146Z,21.66
2023-05-09T01:00:57.644Z,21.67
2023-05-09T01:03:24.188Z,21.64
2023-05-09T01:05:58.638Z,21.63
2023-05-09T01:08:31.243Z,21.63
2023-05-09T01:11:06.573Z,21.64
2023-05-09T01:13:37.056Z,21.64
2023-05-09T01:16:09.150Z,21.65
2023-05-09T01:18:39.942Z,21.67
2023-05-09T01:21:08.751Z,21.67
2023-05-09T01:23:49.876Z,21.66
2023-05-09T01:26:22.042Z,21.65
2023-05-09T01:29:07.052Z,21.64
2023-05-09T01:31:33.705Z,21.60
2023-05-09T01:34:00.219Z,21.59
2023-05-09T01:36:29.533Z,21.55
2023-05-09T01:38:55.872Z,21.53
2023-05-09T01:41:22.445Z,21.51
2023-05-09T01:43:48.835Z,21.48
2023-05-09T01:46:15.681Z,21.50
2023-05-09T01:48:42.047Z,21.47
2023-05-09T01:51:08.380Z,21.44
2023-05-09T01:53:34.724Z,21.41
2023-05-09T01:56:01.090Z,21.42
2023-05-09T01:58:27.427Z,21.41
2023-05-09T02:00:53.809Z,21.42
2023-05-09T02:03:20.253Z,21.44
2023-05-09T02:05:46.612Z,21.45
2023-05-09T02:08:13.841Z,21.47
2023-05-09T02:10:40.302Z,21.51
2023-05-09T02:13:07.135Z,21.52
2023-05-09T02:15:33.502Z,21.56
2023-05-09T02:18:00.014Z,21.56
2023-05-09T02:20:26.401Z,21.56
2023-05-09T02:22:53.300Z,21.57
2023-05-09T02:25:19.625Z,21.57
2023-05-09T02:27:46.389Z,21.59
2023-05-09T02:30:14.365Z,21.57
2023-05-09T02:32:40.785Z,21.56
2023-05-09T02:35:07.320Z,21.56
2023-05-09T02:37:33.645Z,21.54
2023-05-09T02:40:00.073Z,21.53
2023-05-09T02:42:26.457Z,21.51
2023-05-09T02:44:53.608Z,21.50
2023-05-09T02:47:19.929Z,21.48
2023-05-09T02:49:46.405Z,21.44
2023-05-09T02:52:12.739Z,21.41
2023-05-09T02:54:39.112Z,21.43
2023-05-09T02:57:05.497Z,21.44
2023-05-09T02:59:32.098Z,21.46
2023-05-09T03:01:58.425Z,21.47
2023-05-09T03:04:26.344Z,21.46
2023-05-09T03:06:52.660Z,21.49
2023-05-09T03:09:19.053Z,21.50
2023-05-09T03:11:45.369Z,21.52
2023-05-09T03:14:13.172Z,21.43
2023-05-09T03:16:39.493Z,21.40
2023-05-09T03:19:05.858Z,21.39
2023-05-09T03:21:32.213Z,21.37
2023-05-09T03:23:58.569Z,21.34
2023-05-09T03:26:26.483Z,21.25
2023-05-09T03:28:52.839Z,21.10
2023-05-09T03:31:19.223Z,21.19
2023-05-09T03:33:45.618Z,21.23
2023-05-09T03:36:11.979Z,21.22
2023-05-09T03:38:38.306Z,21.26
2023-05-09T03:41:04.643Z,21.24
2023-05-09T03:43:31.005Z,21.24
2023-05-09T03:45:57.364Z,21.21
2023-05-09T03:48:23.688Z,21.18
2023-05-09T03:50:50.011Z,21.17
2023-05-09T03:53:16.342Z,21.15
2023-05-09T03:55:42.688Z,21.09
2023-05-09T03:58:09.071Z,21.12
2023-05-09T04:00:35.443Z,21.13
2023-05-09T04:03:01.894Z,21.14
2023-05-09T04:05:28.250Z,21.14
2023-05-09T04:07:54.568Z,21.15
2023-05-09T04:10:20.889Z,21.15
2023-05-09T04:12:47.260Z,21.14
2023-05-09T04:15:13.970Z,21.16
2023-05-09T04:17:40.697Z,21.19
2023-05-09T04:20:08.201Z,21.21
2023-05-09T04:22:34.545Z,21.23
2023-05-09T04:25:00.885Z,21.25
2023-05-09T04:27:28.103Z,21.25
2023-05-09T04:29:54.451Z,21.24
2023-05-09T04:32:22.444Z,21.22
2023-05-09T04:34:49.120Z,21.19
2023-05-09T04:37:15.481Z,21.22
2023-05-09T04:39:41.786Z,21.25
2023-05-09T04:42:08.205Z,21.30
2023-05-09T04:44:35.957Z,21.35
2023-05-09T04:47:02.371Z,21.29
2023-05-09T04:49:28.688Z,21.36
2023-05-09T04:51:55.032Z,21.35
2023-05-09T04:54:21.403Z,21.29
2023-05-09T04:56:50.017Z,21.30
2023-05-09T04:59:16.973Z,21.28
2023-05-09T05:01:43.508Z,21.36
2023-05-09T05:04:10.132Z,21.39
2023-05-09T05:06:36.543Z,21.42
2023-05-09T05:09:02.887Z,21.47
2023-05-09T05:11:29.210Z,21.52
2023-05-09T05:13:55.543Z,21.53
2023-05-09T05:16:21.900Z,21.53
2023-05-09T05:18:48.281Z,21.51
2023-05-09T05:21:16.203Z,21.53
2023-05-09T05:23:42.538Z,21.58
2023-05-09T05:26:08.880Z,21.53
2023-05-09T05:28:35.254Z,21.51
2023-05-09T05:31:01.574Z,21.44
2023-05-09T05:33:27.914Z,21.42
2023-05-09T05:35:54.256Z,21.45
2023-05-09T05:38:20.607Z,21.42
2023-05-09T05:40:46.929Z,21.39
2023-05-09T05:43:13.421Z,21.38
2023-05-09T05:45:39.801Z,21.47
2023-05-09T05:48:06.215Z,21.56
2023-05-09T05:50:32.883Z,21.59
2023-05-09T05:52:59.265Z,21.54
2023-05-09T05:55:25.897Z,21.57
2023-05-09T05:57:52.495Z,21.55
2023-05-09T06:00:18.943Z,21.47
2023-05-09T06:02:45.411Z,21.55
2023-05-09T06:05:12.100Z,21.59
2023-05-09T06:07:40.120Z,21.66
2023-05-09T06:10:07.120Z,21.72
2023-05-09T06:12:33.498Z,21.72
2023-05-09T06:14:59.875Z,21.74
2023-05-09T06:17:26.268Z,21.73
2023-05-09T06:19:52.608Z,21.79
2023-05-09T06:22:18.997Z,21.75
2023-05-09T06:24:45.448Z,21.67
2023-05-09T06:27:12.019Z,21.71
2023-05-09T06:29:38.370Z,21.81
2023-05-09T06:32:04.832Z,22.21
2023-05-09T06:34:31.181Z,22.43
2023-05-09T06:36:57.515Z,22.51
2023-05-09T06:39:23.837Z,22.57
2023-05-09T06:41:50.148Z,22.66
2023-05-09T06:44:17.033Z,22.71
2023-05-09T06:46:43.423Z,22.79
2023-05-09T06:49:10.860Z,22.85
2023-05-09T06:51:37.190Z,22.86
2023-05-09T06:54:03.577Z,22.92
2023-05-09T06:56:29.906Z,23.00
2023-05-09T06:58:56.214Z,23.01
2023-05-09T07:01:22.746Z,23.09
2023-05-09T07:03:49.084Z,23.09
2023-05-09T07:06:15.772Z,23.16
2023-05-09T07:08:42.127Z,23.16
2023-05-09T07:11:08.579Z,23.20
2023-05-09T07:13:34.895Z,23.23
2023-05-09T07:16:01.310Z,23.27
2023-05-09T07:18:27.679Z,23.30
2023-05-09T07:20:54.003Z,23.34
2023-05-09T07:23:20.342Z,23.37
2023-05-09T07:25:46.694Z,23.39
2023-05-09T07:28:13.085Z,23.42
2023-05-09T07:30:39.432Z,23.49
2023-05-09T07:33:06.712Z,23.46
2023-05-09T07:35:33.177Z,23.54
2023-05-09T07:37:59.544Z,23.59
2023-05-09T07:40:25.948Z,23.65
2023-05-09T07:42:54.977Z,23.65
2023-05-09T07:45:23.698Z,23.68
2023-05-09T07:47:50.557Z,23.70
2023-05-09T07:50:17.370Z,23.73
2023-05-09T07:52:43.751Z,23.80
2023-05-09T07:55:10.086Z,23.79
2023-05-09T07:57:36.423Z,23.80
2023-05-09T08:00:02.796Z,23.84
2023-05-09T08:02:29.263Z,23.88
2023-05-09T08:04:55.712Z,23.86
2023-05-09T08:07:22.057Z,23.89
2023-05-09T08:09:48.392Z,23.89
2023-05-09T08:12:14.718Z,23.87
2023-05-09T08:14:41.138Z,23.95
2023-05-09T08:17:07.466Z,23.85
2023-05-09T08:19:33.781Z,23.96
2023-05-09T08:22:00.635Z,23.95
2023-05-09T08:24:26.952Z,23.97
2023-05-09T08:26:53.289Z,23.95
2023-05-09T08:29:19.681Z,23.96
2023-05-09T08:31:46.061Z,24.03
2023-05-09T08:34:12.428Z,24.04
2023-05-09T08:36:40.318Z,24.04
2023-05-09T08:39:06.639Z,23.99
2023-05-09T08:41:33.324Z,23.97
2023-05-09T08:43:59.665Z,23.91
2023-05-09T08:46:28.050Z,23.88
2023-05-09T08:48:55.413Z,23.86
2023-05-09T08:51:21.887Z,23.79
2023-05-09T08:53:48.216Z,23.73
2023-05-09T08:56:14.544Z,23.78
2023-05-09T08:58:40.896Z,23.84
2023-05-09T09:01:07.786Z,23.80
2023-05-09T09:03:34.097Z,23.83
2023-05-09T09:06:00.422Z,23.82
2023-05-09T09:08:26.829Z,23.80
2023-05-09T09:10:53.165Z,23.80
2023-05-09T09:13:19.570Z,23.76
2023-05-09T09:15:46.350Z,23.77
2023-05-09T09:18:12.936Z,23.76
2023-05-09T09:20:46.056Z,23.73
2023-05-09T09:23:12.372Z,23.73
2023-05-09T09:25:38.743Z,23.72
2023-05-09T09:28:05.167Z,23.75
2023-05-09T09:30:31.562Z,23.78
2023-05-09T09:33:00.746Z,23.81
2023-05-09T09:35:27.177Z,23.83
2023-05-09T09:37:57.862Z,23.84
2023-05-09T09:40:25.562Z,23.83
2023-05-09T09:42:51.882Z,23.85
2023-05-09T09:45:18.998Z,23.87
2023-05-09T09:47:45.983Z,23.89
2023-05-09T09:50:13.186Z,23.89
2023-05-09T09:52:44.069Z,23.91
2023-05-09T09:55:10.717Z,23.92
2023-05-09T09:57:37.479Z,23.93
2023-05-09T10:00:06.117Z,23.93
2023-05-09T10:02:32.555Z,23.94
2023-05-09T10:05:08.146Z,23.99
2023-05-09T10:07:35.442Z,23.96
2023-05-09T10:10:06.129Z,24.00
2023-05-09T10:12:34.341Z,23.96
2023-05-09T10:15:01.746Z,23.97
2023-05-09T10:17:28.266Z,23.97
2023-05-09T10:19:54.664Z,23.98
2023-05-09T10:22:21.113Z,24.01
2023-05-09T10:24:48.123Z,24.02
2023-05-09T10:27:14.782Z,24.04
2023-05-09T10:29:42.167Z,24.06
2023-05-09T10:32:11.631Z,24.08
2023-05-09T10:34:38.010Z,24.08
2023-05-09T10:37:04.582Z,24.10
2023-05-09T10:39:31.004Z,24.11
2023-05-09T10:41:58.041Z,24.14
2023-05-09T10:44:24.403Z,24.20
2023-05-09T10:46:51.080Z,24.08
2023-05-09T10:49:17.557Z,24.11
2023-05-09T10:51:43.878Z,24.13
2023-05-09T10:54:13.377Z,24.13
2023-05-09T10:56:39.910Z,24.13
2023-05-09T10:59:06.471Z,24.12
2023-05-09T11:01:35.395Z,24.11
2023-05-09T11:04:02.146Z,24.12
2023-05-09T11:06:39.657Z,24.12
2023-05-09T11:09:25.802Z,24.12
2023-05-09T11:11:52.806Z,24.11
2023-05-09T11:14:31.586Z,24.03
2023-05-09T11:16:59.351Z,24.08
2023-05-09T11:19:38.149Z,24.08
2023-05-09T11:22:17.509Z,24.11
2023-05-09T11:24:47.505Z,24.11
2023-05-09T11:27:14.536Z,24.16
2023-05-09T11:29:49.929Z,24.15
2023-05-09T11:32:16.357Z,24.09
2023-05-09T11:34:43.236Z,24.08
2023-05-09T11:37:10.153Z,24.09
2023-05-09T11:39:36.571Z,24.06
2023-05-09T11:42:03.773Z,24.09
2023-05-09T11:44:31.689Z,24.12
2023-05-09T11:46:58.021Z,24.11
2023-05-09T11:49:24.350Z,24.10
2023-05-09T11:51:50.754Z,24.11
2023-05-09T11:54:17.064Z,24.06
2023-05-09T11:56:43.474Z,24.11
2023-05-09T11:59:13.024Z,24.13
2023-05-09T12:01:39.378Z,24.14
2023-05-09T12:04:06.262Z,24.13
2023-05-09T12:06:32.924Z,24.09
2023-05-09T12:08:59.268Z,24.09
2023-05-09T12:11:25.814Z,24.07
2023-05-09T12:13:52.619Z,24.02
2023-05-09T12:16:19.254Z,24.04
2023-05-09T12:18:46.542Z,24.04
2023-05-09T12:21:12.876Z,24.01
2023-05-09T12:23:39.203Z,23.99
2023-05-09T12:26:06.005Z,23.98
2023-05-09T12:28:32.345Z,23.93
2023-05-09T12:30:58.701Z,23.91
2023-05-09T12:33:25.107Z,23.91
2023-05-09T12:36:03.168Z,23.93
2023-05-09T12:38:29.659Z,23.89
2023-05-09T12:41:03.884Z,23.53
2023-05-09T12:43:33.733Z,23.68
2023-05-09T12:46:00.672Z,23.76
2023-05-09T12:48:27.464Z,23.80
2023-05-09T12:50:53.843Z,23.83
2023-05-09T12:53:26.813Z,23.84
2023-05-09T12:55:57.138Z,23.85
2023-05-09T12:58:23.653Z,23.83
2023-05-09T13:00:50.016Z,23.81
2023-05-09T13:03:22.283Z,23.78
2023-05-09T13:05:56.232Z,23.80
2023-05-09T13:08:23.207Z,23.82
2023-05-09T13:10:49.790Z,23.78
2023-05-09T13:13:16.799Z,23.75
2023-05-09T13:15:43.442Z,23.75
2023-05-09T13:18:10.821Z,23.73
2023-05-09T13:20:37.197Z,23.73
2023-05-09T13:23:03.544Z,23.74
2023-05-09T13:25:30.172Z,23.77
2023-05-09T13:27:56.520Z,23.77
2023-05-09T13:30:22.843Z,23.77
2023-05-09T13:32:49.286Z,23.74
2023-05-09T13:35:16.251Z,23.76
2023-05-09T13:37:43.400Z,23.80
2023-05-09T13:40:10.341Z,23.79
2023-05-09T13:42:36.762Z,23.79
2023-05-09T13:45:03.353Z,23.79
2023-05-09T13:47:29.763Z,23.78
2023-05-09T13:49:56.136Z,23.78
2023-05-09T13:52:23.157Z,23.78
2023-05-09T13:54:49.509Z,23.77
2023-05-09T13:57:15.857Z,23.78
2023-05-09T13:59:42.191Z,23.77
2023-05-09T14:02:08.536Z,23.74
2023-05-09T14:04:34.925Z,23.73
2023-05-09T14:07:01.269Z,23.71
2023-05-09T14:09:28.354Z,23.71
2023-05-09T14:11:55.440Z,23.70
2023-05-09T14:14:22.050Z,23.71
2023-05-09T14:16:48.392Z,23.70
2023-05-09T14:19:17.483Z,23.69
2023-05-09T14:21:44.024Z,23.68
2023-05-09T14:24:11.171Z,23.68
2023-05-09T14:26:38.429Z,23.66
2023-05-09T14:29:04.778Z,23.65
2023-05-09T14:31:31.193Z,23.65
2023-05-09T14:33:57.552Z,23.64
2023-05-09T14:36:23.997Z,23.63
2023-05-09T14:38:50.353Z,23.63
2023-05-09T14:41:16.665Z,23.62
2023-05-09T14:43:43.003Z,23.61
2023-05-09T14:46:09.353Z,23.59
2023-05-09T14:48:35.707Z,23.58
2023-05-09T14:51:02.034Z,23.58
2023-05-09T14:53:28.660Z,23.55
2023-05-09T14:55:55.054Z,23.56
2023-05-09T14:58:22.067Z,23.56
2023-05-09T15:00:48.589Z,23.58
2023-05-09T15:03:15.222Z,23.54
2023-05-09T15:05:41.571Z,23.56
2023-05-09T15:08:08.130Z,23.53
2023-05-09T15:10:34.656Z,23.52
2023-05-09T15:13:01.178Z,23.50
2023-05-09T15:15:28.371Z,23.51
2023-05-09T15:17:54.771Z,23.50
2023-05-09T15:20:21.187Z,23.49
2023-05-09T15:22:48.012Z,23.48
2023-05-09T15:25:14.578Z,23.47
2023-05-09T15:27:41.052Z,23.43
2023-05-09T15:30:07.577Z,23.46
2023-05-09T15:32:34.641Z,23.44
2023-05-09T15:35:01.501Z,23.45
2023-05-09T15:37:27.821Z,23.39
2023-05-09T15:39:54.145Z,23.39
2023-05-09T15:42:20.494Z,23.40
2023-05-09T15:44:47.282Z,23.40
2023-05-09T15:47:13.629Z,23.41
2023-05-09T15:49:40.220Z,23.40
2023-05-09T15:52:06.772Z,23.39
2023-05-09T15:54:33.558Z,23.38
2023-05-09T15:57:00.011Z,23.38
2023-05-09T15:59:27.145Z,23.34
2023-05-09T16:01:53.862Z,23.36
2023-05-09T16:04:20.233Z,23.35
2023-05-09T16:06:47.537Z,23.32
2023-05-09T16:09:13.857Z,23.31
2023-05-09T16:11:40.460Z,23.32
2023-05-09T16:14:11.208Z,23.28
2023-05-09T16:16:37.899Z,23.28
2023-05-09T16:19:04.518Z,23.25
2023-05-09T16:21:32.900Z,23.25
2023-05-09T16:24:01.369Z,23.24
2023-05-09T16:26:27.690Z,23.26
2023-05-09T16:28:54.000Z,23.23
2023-05-09T16:31:20.732Z,23.21
2023-05-09T16:33:47.179Z,23.23
2023-05-09T16:36:13.759Z,23.21
2023-05-09T16:38:40.310Z,23.20
2023-05-09T16:41:06.638Z,23.21
2023-05-09T16:43:32.965Z,23.20
2023-05-09T16:45:59.560Z,23.18
2023-05-09T16:48:25.942Z,23.19
2023-05-09T16:50:53.674Z,23.17
2023-05-09T16:53:22.602Z,23.16
2023-05-09T16:55:49.284Z,23.09
2023-05-09T16:58:15.948Z,23.16
2023-05-09T17:00:42.356Z,23.16
2023-05-09T17:03:08.759Z,23.18
2023-05-09T17:05:37.872Z,23.19
2023-05-09T17:08:04.209Z,23.21
2023-05-09T17:10:30.518Z,23.23
2023-05-09T17:12:57.222Z,23.21
2023-05-09T17:15:23.656Z,23.21
2023-05-09T17:17:50.008Z,23.19
2023-05-09T17:20:16.627Z,23.21
2023-05-09T17:22:43.375Z,23.22
2023-05-09T17:25:09.755Z,23.21
2023-05-09T17:27:36.077Z,23.20
2023-05-09T17:30:02.515Z,23.21
2023-05-09T17:32:28.875Z,23.20
2023-05-09T17:34:55.234Z,23.19
2023-05-09T17:37:21.554Z,23.21
2023-05-09T17:39:47.886Z,23.20
2023-05-09T17:42:15.023Z,23.20
2023-05-09T17:44:43.670Z,23.21
2023-05-09T17:47:12.506Z,23.20
2023-05-09T17:49:38.869Z,23.20
2023-05-09T17:52:05.302Z,23.19
2023-05-09T17:54:31.667Z,23.19
2023-05-09T17:57:01.234Z,23.15
2023-05-09T17:59:28.383Z,23.16
2023-05-09T18:01:54.897Z,23.13
2023-05-09T18:04:21.375Z,23.14
2023-05-09T18:06:50.885Z,23.12
2023-05-09T18:09:17.421Z,23.12
2023-05-09T18:11:43.757Z,23.11
2023-05-09T18:14:10.835Z,23.11
2023-05-09T18:16:37.302Z,23.11
2023-05-09T18:19:03.759Z,23.10
2023-05-09T18:21:32.153Z,23.09
2023-05-09T18:23:58.507Z,23.08
2023-05-09T18:26:25.372Z,23.06
2023-05-09T18:28:52.191Z,23.07
2023-05-09T18:31:18.586Z,23.04
2023-05-09T18:33:44.924Z,23.03
2023-05-09T18:36:11.361Z,23.03
2023-05-09T18:38:40.955Z,23.03
2023-05-09T18:41:07.765Z,23.03
2023-05-09T18:43:34.406Z,23.00
2023-05-09T18:46:01.134Z,23.00
2023-05-09T18:48:27.446Z,23.00
2023-05-09T18:50:53.842Z,22.99
2023-05-09T18:53:20.491Z,22.99
2023-05-09T18:55:47.759Z,22.95
2023-05-09T18:58:14.077Z,22.95
2023-05-09T19:00:40.481Z,22.94
2023-05-09T19:03:07.163Z,22.93
2023-05-09T19:05:33.502Z,22.92
2023-05-09T19:07:59.812Z,22.90
2023-05-09T19:10:26.154Z,22.91
2023-05-09T19:12:52.578Z,22.88
2023-05-09T19:15:19.739Z,22.91
2023-05-09T19:17:46.128Z,22.89
2023-05-09T19:20:12.619Z,22.87
2023-05-09T19:22:41.194Z,22.88
2023-05-09T19:25:08.030Z,22.85
2023-05-09T19:27:34.414Z,22.84
2023-05-09T19:30:00.746Z,22.86
2023-05-09T19:32:27.129Z,22.84
2023-05-09T19:34:53.465Z,22.83
2023-05-09T19:37:19.933Z,22.83
2023-05-09T19:39:46.256Z,22.81
2023-05-09T19:42:12.573Z,22.81
2023-05-09T19:44:40.350Z,22.81
2023-05-09T19:47:08.816Z,22.80
2023-05-09T19:49:35.237Z,22.78
2023-05-09T19:52:01.559Z,22.76
2023-05-09T19:54:27.925Z,22.75
2023-05-09T19:56:54.276Z,22.74
2023-05-09T19:59:20.611Z,22.74
2023-05-09T20:01:46.964Z,22.74
2023-05-09T20:04:13.372Z,22.74
2023-05-09T20:06:40.044Z,22.73
2023-05-09T20:09:06.592Z,22.73
2023-05-09T20:11:32.905Z,22.73
2023-05-09T20:13:59.286Z,22.70
2023-05-09T20:16:25.792Z,22.72
2023-05-09T20:18:52.374Z,22.70
2023-05-09T20:21:18.737Z,22.70
2023-05-09T20:23:45.101Z,22.71
2023-05-09T20:26:11.660Z,22.71
2023-05-09T20:28:38.238Z,22.73
2023-05-09T20:31:04.571Z,22.73
2023-05-09T20:33:30.907Z,22.73
2023-05-09T20:35:57.329Z,22.73
2023-05-09T20:38:23.700Z,22.75
2023-05-09T20:40:50.058Z,22.73
2023-05-09T20:43:16.601Z,22.73
2023-05-09T20:45:43.066Z,22.73
2023-05-09T20:48:09.446Z,22.72
2023-05-09T20:50:35.757Z,22.73
2023-05-09T20:53:02.078Z,22.72
2023-05-09T20:55:28.504Z,22.71
2023-05-09T20:57:54.879Z,22.70
2023-05-09T21:00:21.257Z,22.71
2023-05-09T21:02:47.682Z,22.73
2023-05-09T21:05:14.043Z,22.71
2023-05-09T21:07:40.526Z,22.70
2023-05-09T21:10:07.216Z,22.70
2023-05-09T21:12:33.549Z,22.68
2023-05-09T21:14:59.920Z,22.66
2023-05-09T21:17:26.500Z,22.68
2023-05-09T21:19:52.919Z,22.70
2023-05-09T21:22:19.246Z,22.70
2023-05-09T21:24:45.579Z,22.69
2023-05-09T21:27:11.911Z,22.69
2023-05-09T21:29:38.272Z,22.71
2023-05-09T21:32:04.611Z,22.74
2023-05-09T21:34:30.930Z,22.73
2023-05-09T21:36:57.245Z,22.74
2023-05-09T21:39:23.905Z,22.75
2023-05-09T21:41:50.258Z,22.76
2023-05-09T21:44:16.647Z,22.76
2023-05-09T21:46:46.132Z,22.77
2023-05-09T21:49:12.764Z,22.78
2023-05-09T21:51:39.076Z,22.78
2023-05-09T21:54:06.217Z,22.79
2023-05-09T21:56:32.537Z,22.79
2023-05-09T21:58:58.880Z,22.80
2023-05-09T22:01:25.226Z,22.81
2023-05-09T22:03:51.791Z,22.81
2023-05-09T22:06:18.293Z,22.82
2023-05-09T22:08:44.647Z,22.82
2023-05-09T22:11:12.020Z,22.82
2023-05-09T22:13:39.751Z,22.83
2023-05-09T22:16:07.095Z,22.84
2023-05-09T22:18:33.456Z,22.83
2023-05-09T22:21:00.346Z,22.83
2023-05-09T22:23:26.750Z,22.85
2023-05-09T22:25:53.107Z,22.86
2023-05-09T22:28:19.545Z,22.85
2023-05-09T22:30:45.870Z,22.85
2023-05-09T22:33:12.195Z,22.83
2023-05-09T22:35:38.573Z,22.83
2023-05-09T22:38:04.885Z,22.83
2023-05-09T22:40:31.249Z,22.83
2023-05-09T22:42:57.605Z,22.81
2023-05-09T22:45:23.955Z,22.83
2023-05-09T22:47:50.369Z,22.84
2023-05-09T22:50:17.025Z,22.83
2023-05-09T22:52:43.512Z,22.84
2023-05-09T22:55:11.382Z,22.83
2023-05-09T22:57:37.750Z,22.82
2023-05-09T23:00:04.653Z,22.82
2023-05-09T23:02:31.090Z,22.81
2023-05-09T23:04:57.577Z,22.81
2023-05-09T23:07:23.910Z,22.82
2023-05-09T23:09:50.658Z,22.80
2023-05-09T23:12:17.049Z,22.84
2023-05-09T23:14:43.378Z,22.85
2023-05-09T23:17:09.751Z,22.84
2023-05-09T23:19:36.086Z,22.88
2023-05-09T23:22:02.412Z,22.84
2023-05-09T23:24:28.756Z,22.80
2023-05-09T23:26:55.101Z,22.79
2023-05-09T23:29:21.416Z,22.79
2023-05-09T23:31:48.037Z,22.79
2023-05-09T23:34:14.377Z,22.77
2023-05-09T23:36:40.757Z,22.76
2023-05-09T23:39:07.139Z,22.74
2023-05-09T23:41:33.468Z,22.75
2023-05-09T23:43:59.799Z,22.73
2023-05-09T23:46:26.169Z,22.71
2023-05-09T23:48:52.704Z,22.70
2023-05-09T23:51:20.475Z,22.69
2023-05-09T23:53:47.123Z,22.70
2023-05-09T23:56:13.444Z,22.67
2023-05-09T23:58:39.777Z,22.66
